createdAt,value
2022-12-02T00:00:47.552Z,18.00
2022-12-02T00:04:27.960Z,17.90
2022-12-02T00:07:53.078Z,17.90
2022-12-02T00:11:30.408Z,17.90
2022-12-02T00:14:57.028Z,17.90
2022-12-02T00:18:19.307Z,17.90
2022-12-02T00:21:41.711Z,17.90
2022-12-02T00:25:04.126Z,17.80
2022-12-02T00:28:26.345Z,17.80
2022-12-02T00:31:48.618Z,17.80
2022-12-02T00:35:10.972Z,17.80
2022-12-02T00:38:33.211Z,17.80
2022-12-02T00:41:55.596Z,17.80
2022-12-02T00:45:36.472Z,17.80
2022-12-02T00:49:00.073Z,17.80
2022-12-02T00:52:22.681Z,17.70
2022-12-02T00:55:44.917Z,17.80
2022-12-02T00:59:07.543Z,17.70
2022-12-02T01:02:29.847Z,17.70
2022-12-02T01:05:52.688Z,17.70
2022-12-02T01:09:14.908Z,17.70
2022-12-02T01:12:37.189Z,17.60
2022-12-02T01:15:59.455Z,17.60
2022-12-02T01:19:23.868Z,17.60
2022-12-02T01:22:46.004Z,17.60
2022-12-02T01:26:08.288Z,17.60
2022-12-02T01:29:30.495Z,17.60
2022-12-02T01:32:53.129Z,17.60
2022-12-02T01:36:15.397Z,17.60
2022-12-02T01:39:37.611Z,17.60
2022-12-02T01:43:00.284Z,17.60
2022-12-02T01:46:24.782Z,17.60
2022-12-02T01:49:47.287Z,17.50
2022-12-02T01:53:11.753Z,17.50
2022-12-02T01:56:33.958Z,17.50
2022-12-02T01:59:56.727Z,17.50
2022-12-02T02:03:19.014Z,17.50
2022-12-02T02:06:46.635Z,17.50
2022-12-02T02:10:10.136Z,17.50
2022-12-02T02:13:32.352Z,17.60
2022-12-02T02:16:54.567Z,17.60
2022-12-02T02:20:20.506Z,17.60
2022-12-02T02:23:42.819Z,17.60
2022-12-02T02:27:05.440Z,17.60
2022-12-02T02:30:30.578Z,17.50
2022-12-02T02:33:52.847Z,17.60
2022-12-02T02:37:15.141Z,17.60
2022-12-02T02:40:38.303Z,17.60
2022-12-02T02:44:01.986Z,17.60
2022-12-02T02:47:24.323Z,17.60
2022-12-02T02:50:48.535Z,17.60
2022-12-02T02:54:13.041Z,17.60
2022-12-02T02:57:36.507Z,17.60
2022-12-02T03:01:03.077Z,17.60
2022-12-02T03:04:27.636Z,17.60
2022-12-02T03:07:50.889Z,17.60
2022-12-02T03:11:13.365Z,17.50
2022-12-02T03:14:35.757Z,17.60
2022-12-02T03:17:58.378Z,17.60
2022-12-02T03:21:22.159Z,17.60
2022-12-02T03:24:44.492Z,17.60
2022-12-02T03:28:06.882Z,17.60
2022-12-02T03:31:29.427Z,17.60
2022-12-02T03:34:51.935Z,17.60
2022-12-02T03:38:14.248Z,17.70
2022-12-02T03:41:37.431Z,17.70
2022-12-02T03:44:59.756Z,17.70
2022-12-02T03:48:22.192Z,17.70
2022-12-02T03:51:45.055Z,17.70
2022-12-02T03:55:07.944Z,17.70
2022-12-02T03:58:35.570Z,17.70
2022-12-02T04:01:57.887Z,17.70
2022-12-02T04:05:20.215Z,17.70
2022-12-02T04:08:42.364Z,17.70
2022-12-02T04:12:04.788Z,17.70
2022-12-02T04:15:27.007Z,17.70
2022-12-02T04:18:49.265Z,17.70
2022-12-02T04:22:11.436Z,17.70
2022-12-02T04:25:34.052Z,17.70
2022-12-02T04:28:56.351Z,17.70
2022-12-02T04:32:19.525Z,17.70
2022-12-02T04:35:41.774Z,17.70
2022-12-02T04:39:04.225Z,17.70
2022-12-02T04:42:26.432Z,17.70
2022-12-02T04:45:49.208Z,17.70
2022-12-02T04:49:11.432Z,17.70
2022-12-02T04:52:33.651Z,17.70
2022-12-02T04:55:55.976Z,17.70
2022-12-02T04:59:18.177Z,17.70
2022-12-02T05:02:40.466Z,17.70
2022-12-02T05:06:02.748Z,17.70
2022-12-02T05:09:24.960Z,17.80
2022-12-02T05:12:47.164Z,17.80
2022-12-02T05:16:09.429Z,17.80
2022-12-02T05:19:31.747Z,17.80
2022-12-02T05:22:54.005Z,17.90
2022-12-02T05:26:16.216Z,18.00
2022-12-02T05:29:38.452Z,18.10
2022-12-02T05:33:00.624Z,18.10
2022-12-02T05:36:22.826Z,18.20
2022-12-02T05:39:45.033Z,18.30
2022-12-02T05:43:26.636Z,18.30
2022-12-02T05:46:49.817Z,18.30
2022-12-02T05:50:14.531Z,18.40
2022-12-02T05:53:38.718Z,18.40
2022-12-02T05:57:03.926Z,18.40
2022-12-02T06:00:26.067Z,18.40
2022-12-02T06:03:50.187Z,18.40
2022-12-02T06:07:14.181Z,18.40
2022-12-02T06:10:37.727Z,18.40
2022-12-02T06:14:03.182Z,18.50
2022-12-02T06:17:25.436Z,18.50
2022-12-02T06:20:53.101Z,18.50
2022-12-02T06:24:15.448Z,18.50
2022-12-02T06:27:37.622Z,18.50
2022-12-02T06:31:09.327Z,18.60
2022-12-02T06:34:34.494Z,18.50
2022-12-02T06:38:00.591Z,18.50
2022-12-02T06:41:28.967Z,18.60
2022-12-02T06:45:04.500Z,18.60
2022-12-02T06:48:33.365Z,18.60
2022-12-02T06:52:17.044Z,18.60
2022-12-02T06:55:40.355Z,18.60
2022-12-02T06:59:13.958Z,18.60
2022-12-02T07:02:37.640Z,18.60
2022-12-02T07:06:20.732Z,18.60
2022-12-02T07:09:45.771Z,18.60
2022-12-02T07:13:16.026Z,18.60
2022-12-02T07:16:38.317Z,18.60
2022-12-02T07:20:11.259Z,18.60
2022-12-02T07:23:33.548Z,18.60
2022-12-02T07:26:59.801Z,18.50
2022-12-02T07:30:37.220Z,18.60
2022-12-02T07:33:59.648Z,18.50
2022-12-02T07:37:21.840Z,18.50
2022-12-02T07:40:44.031Z,18.50
2022-12-02T07:44:06.774Z,18.50
2022-12-02T07:47:28.989Z,18.50
2022-12-02T07:50:51.753Z,18.40
2022-12-02T07:54:13.996Z,18.40
2022-12-02T07:57:36.296Z,18.50
2022-12-02T08:00:58.595Z,18.20
2022-12-02T08:04:21.058Z,18.00
2022-12-02T08:07:43.370Z,17.90
2022-12-02T08:11:05.690Z,18.20
2022-12-02T08:14:27.961Z,18.20
2022-12-02T08:17:50.192Z,18.20
2022-12-02T08:21:12.461Z,18.30
2022-12-02T08:24:34.861Z,18.30
2022-12-02T08:27:57.144Z,18.20
2022-12-02T08:31:19.591Z,18.20
2022-12-02T08:34:41.835Z,18.20
2022-12-02T08:38:04.082Z,18.20
2022-12-02T08:41:26.221Z,18.10
2022-12-02T08:44:48.614Z,18.10
2022-12-02T08:48:12.020Z,18.10
2022-12-02T08:51:35.176Z,18.10
2022-12-02T08:54:58.528Z,18.20
2022-12-02T08:58:20.825Z,18.20
2022-12-02T09:01:43.430Z,18.20
2022-12-02T09:05:06.022Z,18.20
2022-12-02T09:08:28.341Z,18.30
2022-12-02T09:11:50.796Z,18.30
2022-12-02T09:15:13.097Z,18.30
2022-12-02T09:18:35.465Z,18.30
2022-12-02T09:21:57.667Z,18.20
2022-12-02T09:25:19.798Z,18.20
2022-12-02T09:28:41.990Z,18.10
2022-12-02T09:32:04.380Z,18.10
2022-12-02T09:35:26.689Z,18.10
2022-12-02T09:38:49.302Z,18.00
2022-12-02T09:42:12.101Z,18.00
2022-12-02T09:45:34.553Z,18.00
2022-12-02T09:48:57.295Z,18.00
2022-12-02T09:52:26.536Z,18.00
2022-12-02T09:55:49.024Z,18.10
2022-12-02T09:59:16.588Z,18.00
2022-12-02T10:02:39.896Z,18.00
2022-12-02T10:06:07.281Z,18.00
2022-12-02T10:09:31.189Z,18.10
2022-12-02T10:12:54.206Z,18.00
2022-12-02T10:16:16.921Z,18.00
2022-12-02T10:19:39.112Z,18.00
2022-12-02T10:23:17.898Z,18.00
2022-12-02T10:26:52.212Z,18.00
2022-12-02T10:30:20.169Z,18.00
2022-12-02T10:33:56.328Z,18.10
2022-12-02T10:37:25.212Z,18.00
2022-12-02T10:40:47.383Z,18.00
2022-12-02T10:44:20.973Z,18.00
2022-12-02T10:47:43.201Z,18.00
2022-12-02T10:51:05.576Z,18.00
2022-12-02T10:54:31.948Z,18.00
2022-12-02T10:57:55.920Z,17.90
2022-12-02T11:01:22.875Z,17.90
2022-12-02T11:04:45.294Z,18.00
2022-12-02T11:08:19.136Z,18.10
2022-12-02T11:11:42.389Z,18.20
2022-12-02T11:15:36.608Z,18.20
2022-12-02T11:19:34.609Z,18.20
2022-12-02T11:22:59.828Z,18.30
2022-12-02T11:26:41.922Z,18.20
2022-12-02T11:30:15.517Z,18.10
2022-12-02T11:33:43.810Z,18.10
2022-12-02T11:37:33.495Z,18.10
2022-12-02T11:40:55.600Z,18.00
2022-12-02T11:44:26.514Z,17.90
2022-12-02T11:47:54.620Z,17.90
2022-12-02T11:51:41.167Z,17.90
2022-12-02T11:55:11.150Z,17.80
2022-12-02T11:58:34.979Z,17.80
2022-12-02T12:02:17.260Z,17.80
2022-12-02T12:05:41.531Z,17.80
2022-12-02T12:09:11.454Z,17.80
2022-12-02T12:12:33.588Z,17.80
2022-12-02T12:16:01.506Z,17.80
2022-12-02T12:19:23.742Z,17.80
2022-12-02T12:22:45.953Z,17.80
2022-12-02T12:26:28.864Z,17.80
2022-12-02T12:29:51.076Z,17.80
2022-12-02T12:33:13.360Z,17.70
2022-12-02T12:36:36.569Z,17.80
2022-12-02T12:39:58.905Z,17.90
2022-12-02T12:43:21.489Z,18.00
2022-12-02T12:46:44.159Z,18.10
2022-12-02T12:50:06.768Z,18.20
2022-12-02T12:53:28.906Z,18.20
2022-12-02T12:56:51.200Z,18.40
2022-12-02T13:00:14.071Z,18.50
2022-12-02T13:03:36.543Z,18.50
2022-12-02T13:06:58.769Z,18.60
2022-12-02T13:10:21.456Z,18.60
2022-12-02T13:13:43.638Z,18.60
2022-12-02T13:17:06.059Z,18.50
2022-12-02T13:20:28.636Z,18.50
2022-12-02T13:23:50.878Z,18.50
2022-12-02T13:27:13.099Z,18.40
2022-12-02T13:30:39.160Z,18.40
2022-12-02T13:34:04.699Z,18.30
2022-12-02T13:37:26.986Z,18.30
2022-12-02T13:40:52.120Z,18.20
2022-12-02T13:44:14.717Z,18.20
2022-12-02T13:47:37.055Z,18.20
2022-12-02T13:50:59.313Z,18.20
2022-12-02T13:54:21.741Z,18.20
2022-12-02T13:57:43.916Z,18.10
2022-12-02T14:01:06.527Z,18.10
2022-12-02T14:04:29.002Z,18.10
2022-12-02T14:07:51.350Z,18.00
2022-12-02T14:11:13.684Z,18.00
2022-12-02T14:14:35.831Z,18.00
2022-12-02T14:17:58.056Z,18.00
2022-12-02T14:21:20.431Z,18.00
2022-12-02T14:24:48.421Z,18.00
2022-12-02T14:28:11.119Z,18.00
2022-12-02T14:31:33.549Z,18.00
2022-12-02T14:34:55.949Z,17.90
2022-12-02T14:38:18.352Z,17.90
2022-12-02T14:41:40.644Z,17.90
2022-12-02T14:45:03.355Z,17.90
2022-12-02T14:48:28.293Z,17.90
2022-12-02T14:51:51.891Z,17.90
2022-12-02T14:55:14.107Z,17.90
2022-12-02T14:58:36.353Z,17.90
2022-12-02T15:01:58.692Z,17.90
2022-12-02T15:05:22.856Z,17.90
2022-12-02T15:08:45.080Z,17.90
2022-12-02T15:12:07.522Z,17.90
2022-12-02T15:15:38.139Z,17.80
2022-12-02T15:19:01.775Z,17.90
2022-12-02T15:22:24.402Z,17.90
2022-12-02T15:25:46.689Z,17.80
2022-12-02T15:29:09.212Z,17.80
2022-12-02T15:32:31.428Z,17.80
2022-12-02T15:35:53.643Z,17.80
2022-12-02T15:39:15.859Z,17.80
2022-12-02T15:42:38.164Z,17.80
2022-12-02T15:46:00.551Z,17.80
2022-12-02T15:49:22.912Z,17.70
2022-12-02T15:52:45.099Z,17.70
2022-12-02T15:56:07.776Z,17.70
2022-12-02T15:59:29.956Z,17.70
2022-12-02T16:02:56.242Z,17.70
2022-12-02T16:06:18.952Z,17.60
2022-12-02T16:09:41.318Z,17.60
2022-12-02T16:13:03.590Z,17.60
2022-12-02T16:16:25.863Z,17.60
2022-12-02T16:19:48.093Z,17.60
2022-12-02T16:23:10.335Z,17.60
2022-12-02T16:26:32.522Z,17.60
2022-12-02T16:29:54.682Z,17.60
2022-12-02T16:33:16.910Z,17.60
2022-12-02T16:36:39.133Z,17.60
2022-12-02T16:40:01.824Z,17.60
2022-12-02T16:43:24.059Z,17.60
2022-12-02T16:46:46.392Z,17.60
2022-12-02T16:50:10.389Z,17.60
2022-12-02T16:53:32.735Z,17.60
2022-12-02T16:56:56.413Z,17.60
2022-12-02T17:00:19.167Z,17.60
2022-12-02T17:03:41.356Z,17.60
2022-12-02T17:07:03.814Z,17.50
2022-12-02T17:10:26.064Z,17.60
2022-12-02T17:13:48.544Z,17.60
2022-12-02T17:17:37.773Z,17.80
2022-12-02T17:20:55.695Z,17.80
2022-12-02T17:24:18.199Z,17.80
2022-12-02T17:27:41.065Z,17.90
2022-12-02T17:31:03.742Z,17.90
2022-12-02T17:34:25.893Z,18.00
2022-12-02T17:37:48.009Z,18.10
2022-12-02T17:41:10.426Z,18.10
2022-12-02T17:44:32.801Z,18.10
2022-12-02T17:47:54.985Z,18.20
2022-12-02T17:51:17.940Z,18.20
2022-12-02T17:54:40.163Z,18.20
2022-12-02T17:58:02.339Z,18.20
2022-12-02T18:01:24.557Z,18.30
2022-12-02T18:04:47.043Z,18.40
2022-12-02T18:08:09.981Z,18.50
2022-12-02T18:11:32.263Z,18.70
2022-12-02T18:14:54.678Z,18.80
2022-12-02T18:18:17.168Z,18.90
2022-12-02T18:21:39.360Z,18.90
2022-12-02T18:25:01.708Z,18.90
2022-12-02T18:28:24.032Z,18.80
2022-12-02T18:31:46.213Z,18.80
2022-12-02T18:35:08.881Z,18.80
2022-12-02T18:38:31.043Z,18.80
2022-12-02T18:41:53.217Z,18.80
2022-12-02T18:45:16.018Z,18.80
2022-12-02T18:48:38.383Z,18.80
2022-12-02T18:52:00.595Z,18.80
2022-12-02T18:55:22.947Z,18.80
2022-12-02T18:58:46.257Z,18.80
2022-12-02T19:02:10.727Z,18.80
2022-12-02T19:05:32.973Z,18.80
2022-12-02T19:08:55.207Z,18.80
2022-12-02T19:12:17.477Z,18.80
2022-12-02T19:15:39.742Z,18.70
2022-12-02T19:19:02.068Z,18.70
2022-12-02T19:22:24.359Z,18.70
2022-12-02T19:25:50.207Z,18.70
2022-12-02T19:29:12.885Z,18.70
2022-12-02T19:32:35.163Z,18.70
2022-12-02T19:35:57.541Z,18.70
2022-12-02T19:39:19.892Z,18.70
2022-12-02T19:42:42.148Z,18.70
2022-12-02T19:46:04.928Z,18.60
2022-12-02T19:49:27.319Z,18.60
2022-12-02T19:52:50.060Z,18.60
2022-12-02T19:56:12.292Z,18.60
2022-12-02T19:59:34.559Z,18.60
2022-12-02T20:02:56.891Z,18.70
2022-12-02T20:06:19.157Z,18.80
2022-12-02T20:09:41.368Z,18.70
2022-12-02T20:13:03.697Z,18.60
2022-12-02T20:16:26.025Z,18.60
2022-12-02T20:19:48.275Z,18.60
2022-12-02T20:23:10.467Z,18.60
2022-12-02T20:26:32.709Z,18.60
2022-12-02T20:29:54.906Z,18.60
2022-12-02T20:33:17.179Z,18.60
2022-12-02T20:36:39.950Z,18.50
2022-12-02T20:40:02.355Z,18.50
2022-12-02T20:43:24.810Z,18.50
2022-12-02T20:46:47.137Z,18.50
2022-12-02T20:50:09.777Z,18.50
2022-12-02T20:53:32.193Z,18.60
2022-12-02T20:56:54.520Z,18.60
2022-12-02T21:00:17.708Z,18.50
2022-12-02T21:03:39.972Z,18.40
2022-12-02T21:07:07.754Z,18.40
2022-12-02T21:10:31.508Z,18.40
2022-12-02T21:13:53.741Z,18.40
2022-12-02T21:17:15.922Z,18.30
2022-12-02T21:20:38.112Z,18.30
2022-12-02T21:24:03.976Z,18.30
2022-12-02T21:27:26.715Z,18.30
2022-12-02T21:30:48.976Z,18.30
2022-12-02T21:34:11.201Z,18.30
2022-12-02T21:37:33.359Z,18.20
2022-12-02T21:40:55.582Z,18.20
2022-12-02T21:44:18.135Z,18.30
2022-12-02T21:47:40.345Z,18.20
2022-12-02T21:51:02.550Z,18.20
2022-12-02T21:54:24.709Z,18.20
2022-12-02T21:57:46.884Z,18.10
2022-12-02T22:01:27.984Z,18.10
2022-12-02T22:04:50.563Z,18.10
2022-12-02T22:08:13.013Z,18.10
2022-12-02T22:11:36.215Z,18.10
2022-12-02T22:14:58.353Z,18.10
2022-12-02T22:18:20.584Z,18.00
2022-12-02T22:21:42.838Z,18.00
2022-12-02T22:25:05.512Z,18.00
2022-12-02T22:28:27.737Z,18.00
2022-12-02T22:31:49.942Z,17.90
2022-12-02T22:35:12.315Z,17.90
2022-12-02T22:38:34.518Z,17.90
2022-12-02T22:41:56.751Z,17.90
2022-12-02T22:45:18.959Z,17.90
2022-12-02T22:48:41.142Z,17.90
2022-12-02T22:52:03.431Z,17.90
2022-12-02T22:55:25.704Z,17.90
2022-12-02T22:58:47.866Z,17.90
2022-12-02T23:02:15.522Z,17.80
2022-12-02T23:05:39.424Z,17.80
2022-12-02T23:09:01.625Z,17.80
2022-12-02T23:12:25.713Z,17.80
2022-12-02T23:15:47.917Z,17.80
2022-12-02T23:19:10.173Z,17.80
2022-12-02T23:22:35.975Z,17.80
2022-12-02T23:25:58.444Z,17.70
2022-12-02T23:29:20.556Z,17.70
2022-12-02T23:32:42.830Z,17.70
2022-12-02T23:36:05.344Z,17.70
2022-12-02T23:39:27.658Z,17.70
2022-12-02T23:42:49.797Z,17.70
2022-12-02T23:46:12.205Z,17.70
2022-12-02T23:49:34.449Z,17.70
2022-12-02T23:52:56.692Z,17.60
2022-12-02T23:56:18.871Z,17.60
2022-12-02T23:59:41.159Z,17.60
